City Of Cleveland — WDC2358 — position and weather

sailwx.info

Track history (hours):
 
Tides and Currents Weather Stations Pressure Air Temp Water Temp Dewpoint Dewpoint Depression Visibility Wind Speed Wind Dir Waves Ship Positions

City Of Cleveland

Owner: JANTRAN, INC., ROSEDALE, MS. More information available from US FCC via Universal Licensing System and Coast Guard Vessel Documentation Center.

Last reported at 2015-Jan-25 13:17 UTC. Time now 2015-Jan-25 18:19 UTC.
Position N 30°13' W 091°09'.

Length 42 m; draft 12.5 m.

Type: Towing. MMSI: 366991810.

Date/timePositionNaut miles runAvg speedWind from/ knotsBaromVisibWave heightAir tempDewpointWater temp
2015-Jan-25 13:17N 30°13' W 091°09'7 3.1
2015-Jan-25 11:06N 30°19' W 091°13'  
2015-Jan-17 15:32N 30°07' W 090°57'4 3.1
2015-Jan-17 14:20N 30°04' W 090°54'2 2.9
2015-Jan-17 13:33N 30°04' W 090°51'0 0.1
2015-Jan-17 12:33N 30°04' W 090°51'0 0.0
2015-Jan-17 11:12N 30°04' W 090°51'0 0.0
2015-Jan-17 10:26N 30°04' W 090°51'4 3.7
2015-Jan-17 09:22N 30°00' W 090°50'3 3.8
2015-Jan-17 08:33N 30°01' W 090°46'2 2.0
2015-Jan-17 07:30N 30°01' W 090°44'1 0.4
2015-Jan-17 06:18N 30°01' W 090°43'19 4.9
2015-Jan-17 02:22N 29°56' W 090°22'12 2.4
2015-Jan-16 21:31N 29°55' W 090°08'1 1.4
2015-Jan-16 20:33N 29°54' W 090°07'0 0.0
2015-Jan-16 19:33N 29°54' W 090°07'0 0.0
2015-Jan-16 18:32N 29°54' W 090°07'0 0.1
2015-Jan-16 17:31N 29°54' W 090°07'0 0.0
2015-Jan-16 16:13N 29°54' W 090°07'0 0.0
2015-Jan-16 15:15N 29°54' W 090°07'0 0.0
2015-Jan-16 14:23N 29°54' W 090°07'0 0.0
2015-Jan-16 13:31N 29°54' W 090°07'0 0.0
2015-Jan-16 12:29N 29°54' W 090°07'6 1.2
2015-Jan-16 07:31N 29°57' W 090°01'2 0.4
2015-Jan-16 01:27N 29°57' W 090°03'5 5.3
2015-Jan-16 00:32N 29°57' W 090°09'  
Track history (hours):
 
Tides and Currents Weather Stations Pressure Air Temp Water Temp Dewpoint Dewpoint Depression Visibility Wind Speed Wind Dir Waves Ship Positions

City Of Cleveland

Owner: JANTRAN, INC., ROSEDALE, MS. More information available from US FCC via Universal Licensing System and Coast Guard Vessel Documentation Center.

Last reported at 2015-Jan-25 13:17 UTC. Time now 2015-Jan-25 18:19 UTC.
Position N 30°13' W 091°09'.

Length 42 m; draft 12.5 m.

Type: Towing. MMSI: 366991810.

Date/timePositionNaut miles runAvg speedWind from/ knotsBaromVisibWave heightAir tempDewpointWater temp
2015-Jan-25 13:17N 30°13' W 091°09'7 3.1
2015-Jan-25 11:06N 30°19' W 091°13'  
2015-Jan-17 15:32N 30°07' W 090°57'4 3.1
2015-Jan-17 14:20N 30°04' W 090°54'2 2.9
2015-Jan-17 13:33N 30°04' W 090°51'0 0.1
2015-Jan-17 12:33N 30°04' W 090°51'0 0.0
2015-Jan-17 11:12N 30°04' W 090°51'0 0.0
2015-Jan-17 10:26N 30°04' W 090°51'4 3.7
2015-Jan-17 09:22N 30°00' W 090°50'3 3.8
2015-Jan-17 08:33N 30°01' W 090°46'2 2.0
2015-Jan-17 07:30N 30°01' W 090°44'1 0.4
2015-Jan-17 06:18N 30°01' W 090°43'19 4.9
2015-Jan-17 02:22N 29°56' W 090°22'12 2.4
2015-Jan-16 21:31N 29°55' W 090°08'1 1.4
2015-Jan-16 20:33N 29°54' W 090°07'0 0.0
2015-Jan-16 19:33N 29°54' W 090°07'0 0.0
2015-Jan-16 18:32N 29°54' W 090°07'0 0.1
2015-Jan-16 17:31N 29°54' W 090°07'0 0.0
2015-Jan-16 16:13N 29°54' W 090°07'0 0.0
2015-Jan-16 15:15N 29°54' W 090°07'0 0.0
2015-Jan-16 14:23N 29°54' W 090°07'0 0.0
2015-Jan-16 13:31N 29°54' W 090°07'0 0.0
2015-Jan-16 12:29N 29°54' W 090°07'6 1.2
2015-Jan-16 07:31N 29°57' W 090°01'2 0.4
2015-Jan-16 01:27N 29°57' W 090°03'5 5.3
2015-Jan-16 00:32N 29°57' W 090°09'  

Dump ship's entire track history